createdAt,value
2018-03-04T00:01:08.130Z,54.85
2018-03-04T00:03:35.573Z,54.05
2018-03-04T00:06:03.041Z,53.42
2018-03-04T00:08:30.508Z,55.70
2018-03-04T00:10:58.209Z,53.08
2018-03-04T00:13:26.410Z,53.42
2018-03-04T00:15:53.893Z,53.42
2018-03-04T00:18:22.336Z,55.28
2018-03-04T00:20:49.780Z,54.40
2018-03-04T00:23:17.288Z,55.28
2018-03-04T00:25:44.734Z,56.83
2018-03-04T00:28:12.181Z,56.17
2018-03-04T00:30:39.744Z,56.75
2018-03-04T00:33:07.209Z,55.42
2018-03-04T00:35:34.653Z,55.08
2018-03-04T00:38:02.259Z,57.40
2018-03-04T00:40:29.703Z,57.90
2018-03-04T00:42:57.175Z,56.65
2018-03-04T00:45:24.760Z,57.78
2018-03-04T00:47:52.977Z,58.58
2018-03-04T00:50:20.423Z,57.13
2018-03-04T00:52:48.060Z,59.05
2018-03-04T00:55:16.261Z,60.03
2018-03-04T00:57:44.465Z,57.42
2018-03-04T01:00:18.605Z,57.72
2018-03-04T01:02:46.053Z,60.67
2018-03-04T01:05:13.545Z,57.10
2018-03-04T01:07:41.756Z,58.20
2018-03-04T01:10:09.197Z,58.50
2018-03-04T01:12:36.736Z,59.38
2018-03-04T01:15:11.489Z,59.80
2018-03-04T01:17:38.952Z,62.38
2018-03-04T01:20:10.216Z,61.65
2018-03-04T01:22:37.672Z,58.95
2018-03-04T01:25:05.115Z,60.10
2018-03-04T01:27:32.929Z,58.28
2018-03-04T01:30:00.373Z,60.22
2018-03-04T01:32:27.817Z,60.20
2018-03-04T01:34:55.296Z,59.95
2018-03-04T01:37:22.733Z,62.53
2018-03-04T01:39:50.247Z,60.75
2018-03-04T01:42:17.697Z,59.60
2018-03-04T01:44:46.057Z,59.25
2018-03-04T01:47:13.545Z,61.25
2018-03-04T01:49:41.793Z,61.97
2018-03-04T01:52:09.255Z,61.65
2018-03-04T01:54:36.699Z,57.97
2018-03-04T01:57:04.170Z,60.45
2018-03-04T01:59:31.605Z,61.13
2018-03-04T02:01:59.200Z,58.85
2018-03-04T02:04:27.441Z,59.30
2018-03-04T02:06:54.897Z,59.47
2018-03-04T02:09:22.341Z,59.17
2018-03-04T02:11:51.133Z,60.28
2018-03-04T02:14:18.585Z,59.95
2018-03-04T02:16:46.030Z,58.92
2018-03-04T02:19:13.607Z,60.40
2018-03-04T02:21:41.072Z,58.87
2018-03-04T02:29:50.928Z,57.42
2018-03-04T02:32:18.428Z,59.40
2018-03-04T02:34:45.865Z,57.67
2018-03-04T02:37:13.309Z,62.13
2018-03-04T02:39:40.780Z,59.40
2018-03-04T02:42:08.318Z,57.65
2018-03-04T02:44:35.770Z,59.45
2018-03-04T02:47:03.238Z,58.58
2018-03-04T02:49:30.692Z,59.33
2018-03-04T02:51:58.153Z,58.20
2018-03-04T02:54:25.614Z,57.65
2018-03-04T02:56:53.184Z,56.65
2018-03-04T02:59:20.632Z,58.55
2018-03-04T03:01:48.069Z,59.88
2018-03-04T03:04:15.536Z,56.90
2018-03-04T03:06:43.006Z,57.78
2018-03-04T03:09:10.452Z,59.38
2018-03-04T03:11:37.924Z,58.38
2018-03-04T03:14:05.372Z,57.72
2018-03-04T03:16:32.824Z,57.85
2018-03-04T03:19:11.373Z,59.00
2018-03-04T03:21:38.889Z,56.33
2018-03-04T03:24:06.321Z,57.85
2018-03-04T03:26:33.988Z,57.35
2018-03-04T03:29:02.225Z,59.28
2018-03-04T03:31:29.657Z,56.55
2018-03-04T03:34:02.168Z,57.80
2018-03-04T03:36:29.614Z,58.10
2018-03-04T03:38:57.056Z,60.05
2018-03-04T03:41:24.520Z,58.20
2018-03-04T03:43:51.961Z,60.45
2018-03-04T03:46:19.432Z,58.70
2018-03-04T03:48:46.872Z,59.53
2018-03-04T03:51:14.520Z,57.65
2018-03-04T03:53:41.962Z,58.53
2018-03-04T03:56:10.197Z,57.58
2018-03-04T03:58:37.657Z,59.25
2018-03-04T04:01:05.107Z,57.50
2018-03-04T04:03:32.571Z,59.40
2018-03-04T04:06:00.013Z,56.30
2018-03-04T04:08:27.456Z,59.67
2018-03-04T04:10:55.114Z,57.05
2018-03-04T04:13:22.554Z,58.70
2018-03-04T04:15:50.036Z,58.42
2018-03-04T04:18:17.497Z,55.80
2018-03-04T04:20:44.996Z,55.97
2018-03-04T04:23:12.441Z,60.95
2018-03-04T04:25:39.964Z,58.83
2018-03-04T04:28:07.493Z,57.53
2018-03-04T04:30:35.827Z,58.55
2018-03-04T04:33:03.266Z,56.80
2018-03-04T04:35:30.723Z,57.03
2018-03-04T04:37:58.185Z,58.22
2018-03-04T04:40:25.678Z,55.97
2018-03-04T04:42:53.128Z,58.78
2018-03-04T04:45:20.569Z,58.22
2018-03-04T04:47:48.210Z,56.28
2018-03-04T04:50:15.664Z,53.30
2018-03-04T04:52:43.105Z,58.58
2018-03-04T04:55:10.569Z,57.78
2018-03-04T04:57:38.065Z,56.47
2018-03-04T05:00:05.501Z,57.47
2018-03-04T05:02:32.950Z,57.97
2018-03-04T05:05:00.545Z,56.10
2018-03-04T05:07:28.008Z,57.90
2018-03-04T05:09:55.452Z,57.08
2018-03-04T05:12:23.048Z,56.03
2018-03-04T05:14:51.259Z,56.63
2018-03-04T05:17:18.730Z,56.63
2018-03-04T05:19:46.177Z,55.78
2018-03-04T05:22:13.972Z,57.13
2018-03-04T05:24:41.525Z,57.03
2018-03-04T05:27:09.000Z,54.55
2018-03-04T05:29:36.444Z,54.08
2018-03-04T05:32:03.932Z,56.05
2018-03-04T05:34:31.372Z,55.75
2018-03-04T05:36:59.668Z,55.28
2018-03-04T05:39:27.112Z,56.60
2018-03-04T05:41:54.588Z,53.40
2018-03-04T05:44:22.905Z,56.37
2018-03-04T05:46:50.357Z,52.92
2018-03-04T05:49:17.964Z,55.47
2018-03-04T05:51:45.417Z,54.05
2018-03-04T05:54:13.625Z,56.40
2018-03-04T05:56:42.073Z,55.40
2018-03-04T05:59:09.532Z,55.25
2018-03-04T06:01:37.082Z,54.92
2018-03-04T06:04:05.432Z,53.92
2018-03-04T06:06:32.896Z,56.05
2018-03-04T06:09:00.356Z,53.92
2018-03-04T06:11:27.800Z,54.75
2018-03-04T06:13:55.539Z,57.30
2018-03-04T06:16:22.993Z,55.55
2018-03-04T06:18:50.624Z,53.95
2018-03-04T06:21:18.829Z,57.50
2018-03-04T06:23:46.269Z,53.78
2018-03-04T06:26:13.743Z,53.22
2018-03-04T06:28:41.232Z,54.80
2018-03-04T06:31:08.691Z,54.40
2018-03-04T06:33:36.130Z,54.35
2018-03-04T06:36:03.729Z,55.88
2018-03-04T06:38:33.131Z,57.15
2018-03-04T06:41:00.618Z,55.70
2018-03-04T06:43:28.818Z,57.22
2018-03-04T06:45:56.285Z,57.55
2018-03-04T06:48:23.793Z,121.53
2018-03-04T06:50:52.336Z,102.90
2018-03-04T06:53:19.776Z,106.97
2018-03-04T06:55:58.116Z,59.20
2018-03-04T06:58:25.556Z,58.08
2018-03-04T07:00:53.063Z,55.63
2018-03-04T07:03:21.285Z,55.67
2018-03-04T07:05:48.740Z,54.65
2018-03-04T07:08:16.269Z,55.90
2018-03-04T07:10:53.716Z,53.00
2018-03-04T07:13:21.165Z,52.35
2018-03-04T07:15:48.693Z,53.75
2018-03-04T07:18:16.142Z,56.75
2018-03-04T07:20:45.675Z,52.53
2018-03-04T07:23:13.114Z,51.10
2018-03-04T07:25:40.577Z,49.90
2018-03-04T07:28:15.304Z,53.08
2018-03-04T07:30:42.976Z,51.78
2018-03-04T07:33:10.552Z,49.25
2018-03-04T07:35:38.021Z,48.25
2018-03-04T07:38:05.476Z,53.05
2018-03-04T07:40:32.999Z,49.10
2018-03-04T07:43:00.426Z,48.08
2018-03-04T07:45:27.860Z,48.28
2018-03-04T07:47:55.334Z,48.87
2018-03-04T07:50:22.794Z,50.05
2018-03-04T07:52:50.304Z,54.45
2018-03-04T07:55:17.753Z,54.75
2018-03-04T07:57:45.228Z,51.10
2018-03-04T08:00:12.686Z,50.63
2018-03-04T08:02:40.157Z,51.67
2018-03-04T08:05:11.525Z,52.62
2018-03-04T08:07:39.067Z,50.47
2018-03-04T08:10:06.509Z,52.53
2018-03-04T08:12:34.017Z,49.72
2018-03-04T08:15:02.246Z,53.53
2018-03-04T08:17:29.985Z,53.17
2018-03-04T08:19:57.459Z,48.25
2018-03-04T08:22:25.120Z,50.78
2018-03-04T08:25:04.471Z,50.10
2018-03-04T08:27:43.718Z,50.35
2018-03-04T08:30:11.155Z,48.10
2018-03-04T08:32:38.629Z,53.63
2018-03-04T08:35:06.089Z,50.95
2018-03-04T08:37:33.535Z,49.88
2018-03-04T08:40:01.212Z,47.20
2018-03-04T08:42:28.870Z,47.35
2018-03-04T08:44:56.300Z,46.88
2018-03-04T08:47:23.996Z,45.25
2018-03-04T08:49:51.433Z,48.08
2018-03-04T08:52:18.863Z,47.60
2018-03-04T08:54:47.011Z,47.05
2018-03-04T08:57:14.432Z,47.62
2018-03-04T08:59:42.227Z,44.75
2018-03-04T09:02:10.439Z,47.15
2018-03-04T09:04:37.877Z,48.08
2018-03-04T09:07:05.453Z,49.72
2018-03-04T09:09:33.268Z,46.13
2018-03-04T09:12:00.680Z,45.95
2018-03-04T09:14:29.694Z,44.67
2018-03-04T09:16:57.133Z,43.90
2018-03-04T09:19:24.865Z,43.47
2018-03-04T09:21:52.538Z,45.05
2018-03-04T09:24:20.872Z,43.25
2018-03-04T09:26:48.329Z,45.03
2018-03-04T09:29:15.801Z,44.95
2018-03-04T09:31:43.378Z,43.03
2018-03-04T09:34:10.828Z,42.80
2018-03-04T09:36:38.353Z,43.10
2018-03-04T09:39:05.801Z,42.88
2018-03-04T09:41:33.288Z,43.65
2018-03-04T09:44:00.732Z,40.38
2018-03-04T09:46:28.201Z,38.17
2018-03-04T09:48:55.657Z,41.75
2018-03-04T09:51:23.140Z,41.17
2018-03-04T09:53:51.363Z,40.67
2018-03-04T09:56:33.018Z,42.78
2018-03-04T09:59:03.341Z,40.30
2018-03-04T10:01:30.846Z,37.95
2018-03-04T10:04:06.013Z,38.03
2018-03-04T10:06:56.856Z,38.47
2018-03-04T10:09:24.316Z,37.60
2018-03-04T10:11:59.613Z,36.55
2018-03-04T10:17:09.900Z,37.70
2018-03-04T10:19:39.188Z,34.90
2018-03-04T10:22:08.746Z,37.25
2018-03-04T10:24:40.083Z,35.60
2018-03-04T10:27:12.376Z,35.72
2018-03-04T10:29:55.295Z,35.08
2018-03-04T10:32:41.211Z,36.03
2018-03-04T10:35:09.283Z,36.65
2018-03-04T10:37:37.382Z,33.85
2018-03-04T10:40:06.678Z,35.67
2018-03-04T10:42:34.289Z,31.62
2018-03-04T10:45:17.861Z,34.08
2018-03-04T10:47:55.390Z,35.17
2018-03-04T11:17:50.072Z,31.58
2018-03-04T11:20:17.538Z,30.85
2018-03-04T11:22:44.993Z,32.80
2018-03-04T11:25:12.646Z,30.73
2018-03-04T11:27:40.125Z,31.12
2018-03-04T11:30:09.181Z,30.58
2018-03-04T11:32:37.438Z,30.80
2018-03-04T11:35:04.894Z,31.37
2018-03-04T11:37:32.486Z,32.22
2018-03-04T11:40:02.639Z,31.62
2018-03-04T11:42:30.149Z,34.45
2018-03-04T11:44:58.554Z,32.88
2018-03-04T11:47:25.993Z,31.30
2018-03-04T11:49:54.208Z,30.35
2018-03-04T11:52:21.701Z,31.35
2018-03-04T11:54:49.161Z,29.45
2018-03-04T11:57:16.613Z,27.08
2018-03-04T11:59:44.091Z,29.30
2018-03-04T12:02:11.761Z,30.60
2018-03-04T12:04:39.269Z,28.55
2018-03-04T12:07:06.788Z,32.13
2018-03-04T12:09:35.078Z,26.62
2018-03-04T12:12:02.493Z,28.30
2018-03-04T12:14:33.592Z,28.23
2018-03-04T12:17:01.138Z,29.92
2018-03-04T12:19:28.594Z,26.17
2018-03-04T12:22:00.666Z,26.20
2018-03-04T12:24:28.905Z,25.65
2018-03-04T12:26:57.192Z,24.75
2018-03-04T12:29:28.533Z,25.05
2018-03-04T12:31:56.024Z,24.20
2018-03-04T12:34:23.498Z,24.98
2018-03-04T12:36:54.017Z,25.30
2018-03-04T12:39:21.492Z,25.23
2018-03-04T12:41:49.389Z,27.55
2018-03-04T12:44:30.605Z,26.30
2018-03-04T12:46:58.178Z,26.85
2018-03-04T12:49:25.649Z,24.80
2018-03-04T12:51:53.897Z,23.70
2018-03-04T12:54:22.141Z,24.27
2018-03-04T12:56:49.593Z,23.77
2018-03-04T12:59:17.062Z,25.02
2018-03-04T13:01:44.579Z,22.70
2018-03-04T13:04:12.029Z,23.98
2018-03-04T13:06:39.489Z,22.85
2018-03-04T13:09:15.988Z,23.60
2018-03-04T13:11:43.492Z,23.27
2018-03-04T13:14:11.748Z,22.13
2018-03-04T13:16:39.454Z,21.37
2018-03-04T13:19:06.995Z,20.75
2018-03-04T13:21:34.477Z,20.60
2018-03-04T13:24:04.095Z,20.98
2018-03-04T13:26:31.733Z,22.92
2018-03-04T13:28:59.770Z,19.83
2018-03-04T13:31:27.341Z,20.10
2018-03-04T13:33:57.995Z,20.37
2018-03-04T13:36:27.262Z,18.75
2018-03-04T13:38:55.606Z,17.75
2018-03-04T13:41:23.186Z,14.40
2018-03-04T13:43:50.722Z,13.55
2018-03-04T13:46:18.229Z,13.52
2018-03-04T13:48:45.741Z,15.38
2018-03-04T13:51:13.370Z,13.00
2018-03-04T13:53:40.874Z,12.70
2018-03-04T13:56:08.368Z,12.90
2018-03-04T13:58:35.934Z,12.93
2018-03-04T14:01:04.186Z,13.85
2018-03-04T14:03:31.682Z,12.98
2018-03-04T14:23:03.322Z,11.50
2018-03-04T14:25:31.159Z,13.10
2018-03-04T14:28:05.384Z,70.68
2018-03-04T14:30:32.873Z,17.02
2018-03-04T14:35:54.455Z,19.55
2018-03-04T14:38:21.921Z,12.10
2018-03-04T14:40:49.917Z,11.30
2018-03-04T14:43:17.390Z,11.50
2018-03-04T14:48:35.294Z,15.23
2018-03-04T14:51:15.549Z,10.88
2018-03-04T14:53:43.004Z,10.93
2018-03-04T14:56:10.573Z,10.93
2018-03-04T14:58:38.029Z,11.07
2018-03-04T15:01:05.510Z,11.27
2018-03-04T15:03:33.057Z,10.55
2018-03-04T15:06:00.617Z,10.65
2018-03-04T15:08:28.230Z,10.00
2018-03-04T15:10:56.481Z,9.85
2018-03-04T15:13:24.052Z,10.38
2018-03-04T15:15:51.537Z,10.00
2018-03-04T15:18:18.981Z,9.38
2018-03-04T15:20:52.341Z,9.55
2018-03-04T15:23:19.840Z,8.77
2018-03-04T15:25:47.392Z,9.88
2018-03-04T15:28:15.596Z,9.55
2018-03-04T15:30:43.091Z,9.82
2018-03-04T15:33:10.567Z,9.07
2018-03-04T15:35:38.011Z,9.70
2018-03-04T15:38:05.777Z,9.60
2018-03-04T15:40:33.244Z,10.77
2018-03-04T15:43:00.750Z,10.00
2018-03-04T15:45:28.236Z,9.98
2018-03-04T15:47:55.757Z,10.65
2018-03-04T15:50:29.101Z,9.23
2018-03-04T15:52:56.589Z,9.60
2018-03-04T15:55:25.917Z,11.30
2018-03-04T15:57:53.494Z,13.70
2018-03-04T16:00:21.741Z,11.18
2018-03-04T16:02:49.310Z,9.70
2018-03-04T16:05:16.796Z,14.65
2018-03-04T16:13:34.217Z,10.80
2018-03-04T16:16:02.460Z,10.57
2018-03-04T16:18:30.317Z,10.57
2018-03-04T16:20:57.810Z,10.95
2018-03-04T16:23:26.102Z,12.10
2018-03-04T16:25:57.938Z,10.55
2018-03-04T16:28:25.397Z,11.63
2018-03-04T16:30:52.905Z,11.07
2018-03-04T16:33:21.130Z,11.55
2018-03-04T16:35:49.456Z,11.65
2018-03-04T16:38:16.956Z,12.25
2018-03-04T16:40:44.422Z,10.90
2018-03-04T16:43:11.972Z,11.93
2018-03-04T16:45:39.523Z,11.50
2018-03-04T16:48:07.029Z,11.98
2018-03-04T16:50:34.576Z,12.35
2018-03-04T16:53:02.840Z,11.68
2018-03-04T16:55:31.084Z,12.35
2018-03-04T16:57:58.720Z,13.35
2018-03-04T17:00:26.278Z,15.40
2018-03-04T17:02:53.792Z,14.95
2018-03-04T17:05:21.326Z,14.87
2018-03-04T17:07:48.817Z,15.80
2018-03-04T17:10:16.388Z,15.18
2018-03-04T17:12:44.685Z,16.55
2018-03-04T17:15:12.302Z,16.45
2018-03-04T17:17:39.822Z,17.17
2018-03-04T17:20:12.250Z,22.20
2018-03-04T17:22:39.773Z,21.02
2018-03-04T17:25:07.381Z,18.65
2018-03-04T17:27:36.077Z,20.27
2018-03-04T17:30:03.575Z,21.25
2018-03-04T17:32:31.458Z,20.60
2018-03-04T17:34:58.975Z,23.27
2018-03-04T17:37:27.302Z,24.90
2018-03-04T17:39:54.769Z,24.33
2018-03-04T17:42:22.332Z,26.25
2018-03-04T17:44:49.789Z,28.83
2018-03-04T17:47:17.325Z,27.60
2018-03-04T17:49:44.857Z,26.70
2018-03-04T17:52:12.376Z,27.98
2018-03-04T17:54:40.669Z,29.37
2018-03-04T18:02:55.101Z,28.98
2018-03-04T18:05:22.567Z,28.08
2018-03-04T18:07:50.163Z,29.17
2018-03-04T18:10:17.660Z,30.25
2018-03-04T18:12:45.279Z,29.80
2018-03-04T18:15:28.561Z,30.75
2018-03-04T18:17:56.017Z,32.65
2018-03-04T18:20:23.675Z,34.28
2018-03-04T18:22:52.552Z,32.13
2018-03-04T18:25:20.769Z,32.55
2018-03-04T18:30:38.821Z,32.88
2018-03-04T18:33:06.301Z,34.13
2018-03-04T18:35:33.762Z,34.92
2018-03-04T18:38:01.253Z,35.20
2018-03-04T18:40:28.714Z,38.42
2018-03-04T18:42:56.256Z,39.33
2018-03-04T18:45:24.461Z,37.55
2018-03-04T18:47:51.926Z,38.20
2018-03-04T18:50:19.647Z,37.80
2018-03-04T18:52:47.255Z,46.50
2018-03-04T18:55:14.696Z,40.63
2018-03-04T18:57:42.164Z,37.60
2018-03-04T19:03:00.426Z,37.83
2018-03-04T19:05:27.905Z,39.53
2018-03-04T19:07:55.396Z,38.70
2018-03-04T19:10:23.625Z,40.38
2018-03-04T19:12:51.506Z,38.80
2018-03-04T19:15:18.965Z,37.83
2018-03-04T19:17:46.559Z,38.78
2018-03-04T19:20:14.785Z,37.15
2018-03-04T19:22:42.293Z,37.60
2018-03-04T19:25:10.531Z,36.88
2018-03-04T19:27:38.001Z,38.55
2018-03-04T19:30:05.470Z,39.17
2018-03-04T19:32:32.950Z,37.88
2018-03-04T19:35:01.160Z,37.72
2018-03-04T19:37:28.784Z,38.03
2018-03-04T19:39:56.256Z,37.95
2018-03-04T19:42:23.769Z,37.97
2018-03-04T19:44:51.367Z,37.50
2018-03-04T19:47:18.854Z,37.00
2018-03-04T19:49:46.340Z,37.88
2018-03-04T19:52:13.958Z,36.60
2018-03-04T19:54:41.422Z,37.80
2018-03-04T19:57:08.912Z,36.92
2018-03-04T19:59:39.429Z,39.72
2018-03-04T20:02:06.888Z,36.50
2018-03-04T20:04:34.351Z,35.80
2018-03-04T20:07:01.850Z,37.38
2018-03-04T20:09:30.085Z,36.20
2018-03-04T20:11:57.561Z,37.33
2018-03-04T20:14:30.606Z,36.60
2018-03-04T20:16:58.838Z,34.70
2018-03-04T20:19:27.651Z,35.17
2018-03-04T20:21:55.901Z,34.50
2018-03-04T20:24:23.401Z,35.05
2018-03-04T20:26:50.921Z,33.67
2018-03-04T20:29:18.407Z,34.40
2018-03-04T20:31:46.483Z,33.38
2018-03-04T20:34:14.151Z,36.80
2018-03-04T20:36:41.767Z,33.75
2018-03-04T20:39:09.308Z,30.90
2018-03-04T20:41:36.899Z,31.55
2018-03-04T20:44:04.490Z,31.60
2018-03-04T20:46:32.077Z,30.02
2018-03-04T20:48:59.682Z,29.40
2018-03-04T20:51:27.324Z,30.62
2018-03-04T20:53:54.797Z,30.55
2018-03-04T20:56:22.269Z,29.37
2018-03-04T20:58:49.733Z,30.95
2018-03-04T21:18:21.425Z,28.30
2018-03-04T21:20:49.036Z,27.05
2018-03-04T21:23:18.794Z,26.40
2018-03-04T21:25:46.621Z,26.50
2018-03-04T21:28:15.134Z,25.60
2018-03-04T21:42:30.466Z,24.40
2018-03-04T21:44:57.951Z,22.67
2018-03-04T21:47:25.490Z,22.20
2018-03-04T21:49:53.757Z,22.20
2018-03-04T22:09:25.553Z,21.20
2018-03-04T22:28:58.116Z,21.45
2018-03-04T22:31:25.637Z,21.17
2018-03-04T22:33:53.145Z,21.33
2018-03-04T22:36:20.625Z,20.80
2018-03-04T22:38:48.109Z,19.62
2018-03-04T22:41:15.594Z,20.52
2018-03-04T23:00:47.738Z,16.08
2018-03-04T23:03:15.224Z,15.15
2018-03-04T23:05:42.876Z,14.80
2018-03-04T23:08:10.357Z,13.02
2018-03-04T23:24:51.814Z,11.80
2018-03-04T23:27:19.340Z,9.85
2018-03-04T23:29:47.669Z,9.50
2018-03-04T23:32:15.180Z,8.20
2018-03-04T23:34:43.417Z,9.13
2018-03-04T23:37:10.909Z,8.52
2018-03-04T23:39:39.153Z,8.15
2018-03-04T23:42:06.725Z,7.75
2018-03-04T23:44:34.210Z,7.47
2018-03-04T23:47:02.447Z,7.25
2018-03-04T23:49:29.921Z,7.90
2018-03-04T23:51:57.402Z,7.05
2018-03-04T23:54:25.641Z,6.97
2018-03-04T23:56:53.129Z,6.65
2018-03-04T23:59:20.585Z,6.90
